createdAt,value
2023-04-16T04:34:00.572Z,1761.9
2023-04-16T04:35:01.629Z,1858.1
2023-04-16T04:36:00.432Z,1958.5
2023-04-16T04:37:00.418Z,2058.9
2023-04-16T04:38:00.415Z,2159.3
2023-04-16T04:39:00.443Z,2262.6
2023-04-16T04:40:01.244Z,2365.9
2023-04-16T04:42:00.416Z,2564.5
2023-04-16T04:43:00.424Z,2663.9
2023-04-16T04:44:00.437Z,2760.9
2023-04-16T04:47:00.422Z,3069.7
2023-04-16T04:48:00.443Z,3175.7
2023-04-16T04:49:00.419Z,3282.5
2023-04-16T04:50:00.710Z,3389.3
2023-04-16T04:51:00.788Z,3492.4
2023-04-16T04:52:00.677Z,3595.5
2023-04-16T04:53:05.427Z,3698.7
2023-04-16T04:54:00.478Z,3815.1
2023-04-16T04:57:00.429Z,4256.9
2023-04-16T04:58:00.420Z,4419.7
2023-04-16T04:59:00.419Z,4586.2
2023-04-16T05:01:05.495Z,4917.2
2023-04-16T05:02:00.457Z,5081.7
2023-04-16T05:03:00.499Z,5246.1
2023-04-16T05:04:00.513Z,5425.5
2023-04-16T05:05:00.706Z,5604.9
2023-04-16T05:06:00.463Z,5817.1
2023-04-16T05:07:00.431Z,6029.3
2023-04-16T05:08:00.429Z,6241.5
2023-04-16T05:09:00.438Z,6486.3
2023-04-16T05:10:01.242Z,6731.1
2023-04-16T05:12:00.427Z,7175.0
2023-04-16T05:13:00.435Z,7396.9
2023-04-16T05:14:00.435Z,7636.1
2023-04-16T05:17:00.517Z,8418.7
2023-04-16T05:18:00.444Z,8690.4
2023-04-16T05:19:00.439Z,9011.9
2023-04-16T05:20:01.713Z,9333.5
2023-04-16T05:21:00.440Z,9684.5
2023-04-16T05:22:00.452Z,10035.6
2023-04-16T05:23:00.435Z,10386.7
2023-04-16T05:24:00.431Z,10728.6
2023-04-16T05:25:09.223Z,11070.5
2023-04-16T05:26:00.431Z,11366.7
2023-04-16T05:27:00.431Z,11662.8
2023-04-16T05:28:00.431Z,11958.9
2023-04-16T05:29:00.429Z,12197.7
2023-04-16T05:30:01.355Z,12436.5
2023-04-16T05:31:00.501Z,12624.1
2023-04-16T05:32:00.427Z,12811.6
2023-04-16T05:33:00.481Z,12999.1
2023-04-16T05:34:00.447Z,13173.7
2023-04-16T05:35:00.656Z,13348.2
2023-04-16T05:36:00.439Z,13619.9
2023-04-16T05:37:00.452Z,13891.5
2023-04-16T05:38:05.453Z,14163.2
2023-04-16T05:39:00.430Z,14487.1
2023-04-16T05:40:00.724Z,14811.1
2023-04-16T05:41:00.432Z,15188.3
2023-04-16T05:42:00.434Z,15565.6
2023-04-16T05:43:00.432Z,15942.9
2023-04-16T05:44:00.428Z,16370.7
2023-04-16T05:47:00.441Z,17704.2
2023-04-16T05:48:00.480Z,18157.1
2023-04-16T05:49:00.429Z,18598.7
2023-04-16T05:50:00.665Z,19040.3
2023-04-16T05:51:00.470Z,19359.0
2023-04-16T05:52:00.436Z,19677.7
2023-04-16T05:53:00.441Z,19996.5
2023-04-16T05:54:00.473Z,20260.8
2023-04-16T05:55:00.666Z,20525.1
2023-04-16T05:56:00.468Z,20758.9
2023-04-16T05:57:00.441Z,20992.6
2023-04-16T05:58:00.444Z,21226.3
2023-04-16T05:59:00.436Z,21524.3
2023-04-16T06:02:00.448Z,22476.1
2023-04-16T06:03:00.511Z,22803.0
2023-04-16T06:04:00.505Z,23124.6
2023-04-16T06:07:00.440Z,23902.3
2023-04-16T06:08:00.447Z,24130.4
2023-04-16T06:09:00.441Z,24420.7
2023-04-16T06:10:00.681Z,24711.1
2023-04-16T06:11:00.466Z,25278.4
2023-04-16T06:12:00.697Z,25845.7
2023-04-16T06:13:00.441Z,26413.1
2023-04-16T06:14:00.464Z,27015.5
2023-04-16T06:15:01.277Z,27617.9
2023-04-16T06:16:01.529Z,28070.0
2023-04-16T06:17:00.440Z,28522.1
2023-04-16T06:18:01.072Z,28974.3
2023-04-16T06:19:00.438Z,29476.5
2023-04-16T06:22:00.473Z,31060.7
2023-04-16T06:23:00.440Z,31601.6
2023-04-16T06:24:00.459Z,32058.8
2023-04-16T06:27:00.437Z,33355.7
2023-04-16T06:28:00.448Z,33775.6
2023-04-16T06:29:00.455Z,34377.5
2023-04-16T06:30:01.268Z,34979.3
2023-04-16T06:32:00.729Z,36606.8
2023-04-16T06:33:00.456Z,37420.5
2023-04-16T06:34:00.460Z,38002.2
2023-04-16T06:35:01.135Z,38583.9
2023-04-16T06:37:00.447Z,39700.9
2023-04-16T06:38:00.454Z,40259.5
2023-04-16T06:39:00.446Z,41015.4
2023-04-16T06:40:01.284Z,41771.3
2023-04-16T06:42:00.474Z,42653.3
2023-04-16T06:43:00.446Z,43094.3
2023-04-16T06:44:00.463Z,43398.3
2023-04-16T06:45:01.618Z,43702.2
2023-04-16T06:46:00.465Z,43831.5
2023-04-16T06:47:00.475Z,43960.7
2023-04-16T06:48:00.465Z,44090.0
2023-04-16T06:49:00.447Z,43549.5
2023-04-16T06:52:00.450Z,42259.3
2023-04-16T06:53:00.448Z,41884.5
2023-04-16T06:54:00.708Z,42007.1
2023-04-16T06:56:00.718Z,42532.9
2023-04-16T06:57:00.445Z,42936.3
2023-04-16T06:58:00.475Z,43339.6
2023-04-16T06:59:00.443Z,43666.1
2023-04-16T07:02:00.525Z,45626.9
2023-04-16T07:03:00.620Z,46444.1
2023-04-16T07:04:00.582Z,48436.5
2023-04-16T07:05:01.514Z,50428.9
2023-04-16T07:06:00.510Z,52237.9
2023-04-16T07:07:00.469Z,54046.8
2023-04-16T07:08:00.451Z,55855.7
2023-04-16T07:09:00.478Z,56944.9
2023-04-16T07:10:01.266Z,58034.0
2023-04-16T07:12:00.450Z,59802.5
2023-04-16T07:13:00.446Z,60686.8
2023-04-16T07:14:00.482Z,61585.7
2023-04-16T07:17:00.473Z,63477.9
2023-04-16T07:18:00.511Z,63974.5
2023-04-16T07:19:00.446Z,64094.9
2023-04-16T07:20:02.568Z,64215.3
2023-04-16T07:21:00.941Z,64380.5
2023-04-16T07:22:00.463Z,64545.7
2023-04-16T07:23:00.450Z,64710.9
2023-04-16T07:24:00.460Z,64871.2
2023-04-16T07:25:01.243Z,65031.5
2023-04-16T07:27:00.469Z,65321.4
2023-04-16T07:28:00.452Z,65466.3
2023-04-16T07:29:00.459Z,65500.7
2023-04-16T07:30:01.269Z,65535.0
2023-04-16T08:15:01.522Z,65535.0
2023-04-16T08:30:02.986Z,65535.0
2023-04-16T08:45:01.375Z,65535.0
2023-04-16T09:00:05.179Z,65535.0
2023-04-16T10:15:01.867Z,65535.0
2023-04-16T10:45:01.815Z,65535.0
2023-04-16T11:15:01.933Z,65535.0
2023-04-16T11:26:01.105Z,64983.8
2023-04-16T11:27:00.751Z,64432.6
2023-04-16T11:28:00.754Z,63881.4
2023-04-16T11:29:00.758Z,62981.5
2023-04-16T11:30:01.430Z,62081.5
2023-04-16T11:31:00.987Z,61225.3
2023-04-16T11:32:00.754Z,60369.0
2023-04-16T11:33:00.832Z,59512.7
2023-04-16T11:41:02.143Z,60063.9
2023-04-16T11:42:00.847Z,60615.1
2023-04-16T11:43:00.774Z,61166.3
2023-04-16T11:44:00.772Z,62066.3
2023-04-16T11:45:01.347Z,62966.2
2023-04-16T11:46:01.707Z,63822.5
2023-04-16T11:47:00.805Z,64678.7
2023-04-16T11:48:01.054Z,65535.0
2023-04-16T12:00:11.451Z,65535.0
2023-04-16T13:25:01.345Z,65535.0
2023-04-16T14:00:03.342Z,65535.0
2023-04-16T14:30:02.103Z,65535.0
2023-04-16T15:35:01.576Z,65535.0
2023-04-16T15:59:01.801Z,65534.3
2023-04-16T16:02:00.629Z,65404.3
2023-04-16T16:03:00.704Z,65275.7
2023-04-16T16:04:01.781Z,65070.5
2023-04-16T16:05:00.615Z,64865.3
2023-04-16T16:06:00.558Z,64660.1
2023-04-16T16:07:00.590Z,64393.3
2023-04-16T16:08:00.557Z,64126.6
2023-04-16T16:09:00.767Z,63811.1
2023-04-16T16:10:01.803Z,63495.5
2023-04-16T16:11:00.593Z,63180.0
2023-04-16T16:12:00.623Z,62840.9
2023-04-16T16:13:00.564Z,62501.9
2023-04-16T16:14:01.051Z,62172.2
2023-04-16T16:15:01.318Z,61842.5
2023-04-16T16:16:00.619Z,61512.9
2023-04-16T16:17:00.608Z,61359.5
2023-04-16T16:18:00.574Z,61206.1
2023-04-16T16:19:01.690Z,61170.5
2023-04-16T16:20:00.581Z,61134.9
2023-04-16T16:21:00.581Z,61099.3
2023-04-16T16:22:00.597Z,61121.7
2023-04-16T16:23:00.568Z,61144.1
2023-04-16T16:24:00.777Z,61173.0
2023-04-16T16:25:00.577Z,61201.9
2023-04-16T16:26:00.569Z,61230.9
2023-04-16T16:27:00.591Z,61212.9
2023-04-16T16:28:00.570Z,61195.0
2023-04-16T16:29:00.768Z,61089.1
2023-04-16T16:31:00.600Z,60877.2
2023-04-16T16:32:00.641Z,60634.5
2023-04-16T16:33:00.657Z,60391.9
2023-04-16T16:34:01.197Z,60000.1
2023-04-16T16:35:00.583Z,59608.4
2023-04-16T16:36:00.606Z,59216.7
2023-04-16T16:37:00.598Z,58682.2
2023-04-16T16:38:00.569Z,58147.7
2023-04-16T16:39:00.774Z,57502.6
2023-04-16T16:40:00.651Z,56857.5
2023-04-16T16:41:05.571Z,56212.3
2023-04-16T16:42:00.834Z,55532.2
2023-04-16T16:43:00.631Z,54852.1
2023-04-16T16:44:00.782Z,54147.3
2023-04-16T16:45:02.090Z,53442.5
2023-04-16T16:46:00.568Z,52737.7
2023-04-16T16:47:00.725Z,51996.1
2023-04-16T16:48:00.584Z,51254.6
2023-04-16T16:49:01.805Z,50495.2
2023-04-16T16:50:02.688Z,49735.8
2023-04-16T16:51:00.589Z,48976.4
2023-04-16T16:52:00.603Z,48265.1
2023-04-16T16:53:00.585Z,47553.9
2023-04-16T16:54:00.797Z,46900.8
2023-04-16T16:55:00.581Z,46247.7
2023-04-16T16:56:00.577Z,45594.7
2023-04-16T16:57:00.609Z,44932.3
2023-04-16T16:58:00.576Z,44269.9
2023-04-16T16:59:01.688Z,43580.6
2023-04-16T17:01:00.601Z,42202.1
2023-04-16T17:02:00.737Z,41500.1
2023-04-16T17:03:00.917Z,40798.2
2023-04-16T17:04:00.878Z,40106.4
2023-04-16T17:05:00.587Z,39414.6
2023-04-16T17:06:00.640Z,38722.8
2023-04-16T17:07:00.608Z,38047.0
2023-04-16T17:08:00.582Z,37371.2
2023-04-16T17:09:15.591Z,36713.9
2023-04-16T17:10:03.117Z,36056.7
2023-04-16T17:11:00.583Z,35399.4
2023-04-16T17:12:00.603Z,34764.2
2023-04-16T17:37:00.498Z,19314.7
2023-04-16T17:38:00.464Z,19134.5
2023-04-16T17:39:00.483Z,18827.4
2023-04-16T17:41:01.492Z,18476.4
2023-04-16T17:42:00.483Z,18223.0
2023-04-16T17:43:00.464Z,18025.9
2023-04-16T17:44:00.480Z,17759.4
2023-04-16T17:47:00.492Z,17130.4
2023-04-16T17:48:00.526Z,16933.9
2023-04-16T17:49:00.482Z,16696.3
2023-04-16T17:50:01.718Z,16276.1
2023-04-16T17:51:00.508Z,15855.8
2023-04-16T17:52:00.491Z,15436.8
2023-04-16T17:53:00.464Z,15017.8
2023-04-16T17:54:00.462Z,14590.4
2023-04-16T17:55:00.697Z,14163.0
2023-04-16T17:56:01.531Z,13735.6
2023-04-16T17:57:00.495Z,13312.5
2023-04-16T17:58:00.480Z,12889.3
2023-04-16T17:59:00.472Z,12467.7
2023-04-16T18:02:00.637Z,11211.1
2023-04-16T18:03:00.558Z,10797.6
2023-04-16T18:04:05.730Z,10389.9
2023-04-16T18:05:01.164Z,9982.1
2023-04-16T18:06:00.468Z,9574.4
2023-04-16T18:07:00.519Z,9179.7
2023-04-16T18:08:00.469Z,8785.1
2023-04-16T18:09:00.471Z,8411.2
2023-04-16T18:12:00.493Z,7304.9
2023-04-16T18:13:00.466Z,6946.3
2023-04-16T18:14:00.651Z,6598.1
2023-04-16T18:17:00.503Z,5558.8
2023-04-16T18:18:00.502Z,5215.7
2023-04-16T18:19:00.478Z,4898.0
2023-04-16T18:22:00.504Z,3973.0
2023-04-16T18:23:00.495Z,3683.5
2023-04-16T18:24:00.478Z,3422.9
2023-04-16T18:25:01.381Z,3162.4
2023-04-16T18:27:00.490Z,2676.4
2023-04-16T18:28:00.468Z,2450.9
2023-04-16T18:29:00.494Z,2267.7
2023-04-16T18:32:03.901Z,1755.0
2023-04-16T18:33:25.878Z,1608.7
2023-04-16T18:34:00.500Z,1486.3
2023-04-16T18:37:00.491Z,1138.5
2023-04-16T18:38:00.479Z,1035.5
2023-04-16T18:39:01.966Z,949.1
2023-04-16T18:40:01.364Z,862.7
2023-04-16T18:42:00.494Z,705.3
2023-04-16T18:43:00.477Z,634.4
2023-04-16T18:44:00.468Z,576.5
2023-04-16T18:45:01.365Z,518.7
2023-04-16T18:47:00.587Z,414.4
2023-04-16T18:48:00.539Z,368.0
2023-04-16T18:49:00.484Z,330.9
2023-04-16T18:52:00.511Z,227.5
2023-04-16T18:53:00.469Z,198.5
2023-04-16T18:54:00.469Z,176.3
2023-04-16T18:55:00.733Z,154.2
2023-04-16T18:56:00.474Z,132.1
2023-04-16T18:57:00.940Z,115.7
2023-04-16T18:58:00.476Z,99.3
2023-04-16T18:59:00.552Z,87.4
2023-04-16T19:02:05.546Z,55.3
2023-04-16T19:03:00.536Z,46.9
2023-04-16T19:04:00.529Z,41.1
2023-04-16T19:05:01.324Z,35.4
2023-04-16T19:07:00.474Z,25.8
2023-04-16T19:08:05.502Z,21.9
2023-04-16T19:09:00.474Z,19.3
2023-04-16T19:10:01.730Z,16.7
2023-04-16T19:11:00.501Z,14.1
2023-04-16T19:12:00.475Z,12.3
2023-04-16T19:13:00.503Z,10.4
2023-04-16T19:14:00.475Z,9.1
2023-04-16T19:15:01.252Z,7.9
2023-04-16T19:17:00.472Z,5.7
2023-04-16T19:18:00.599Z,4.9
2023-04-16T19:19:00.479Z,4.3
2023-04-16T19:20:00.685Z,3.7
2023-04-16T19:21:00.511Z,3.1
2023-04-16T19:22:00.475Z,2.7
2023-04-16T19:23:00.506Z,2.3
2023-04-16T19:24:00.477Z,2.0
2023-04-16T19:25:02.156Z,1.7
2023-04-16T19:27:00.501Z,1.3
2023-04-16T19:28:00.508Z,1.1
2023-04-16T19:29:00.501Z,0.9
2023-04-16T19:32:00.502Z,0.6
2023-04-16T19:33:00.539Z,0.5
